Isuzu — JD3277 — position and weather

sailwx.info

Track history (hours):
 
Tides and Currents Weather Stations Pressure Air Temp Water Temp Dewpoint Dewpoint Depression Visibility Wind Speed Wind Dir Waves Ship Positions

Isuzu

Last reported at 2018-Jul-06 05:10 UTC. Time now 2018-Jul-16 22:07 UTC.
Position N 34°25' E 134°21'.
Warning: this ship's position is 10 days out of date.

Length 65 m; draft 4.3 m.

Type: Tanker. MMSI: 431003203.

Date/timePositionNaut miles runAvg speedWind from/ knotsBaromVisibWave heightAir tempDewpointWater temp
2018-Jul-06 05:10N 34°25' E 134°21'313.3
2018-Jul-06 04:59N 34°27' E 134°24'613.2
2018-Jul-06 04:30N 34°29' E 134°31'713.4
2018-Jul-06 04:00N 34°32' E 134°39'713.4
2018-Jul-06 03:29N 34°34' E 134°47'713.8
2018-Jul-06 03:00N 34°36' E 134°54'612.7
2018-Jul-06 02:30N 34°37' E 135°02'612.8
2018-Jul-06 02:00N 34°36' E 135°10'611.4
2018-Jul-06 01:30N 34°38' E 135°16'4 7.4
2018-Jul-06 01:00N 34°42' E 135°16'0 0.0
2018-Jul-06 00:30N 34°42' E 135°16'0 0.0
2018-Jul-06 00:00N 34°42' E 135°16'0 0.0
2018-Jul-05 23:30N 34°42' E 135°16'2 3.8
2018-Jul-05 23:00N 34°40' E 135°15'611.5
2018-Jul-05 22:30N 34°35' E 135°17'612.7
2018-Jul-05 22:00N 34°29' E 135°19'0 0.5
2018-Jul-05 21:30N 34°29' E 135°19'0 0.1
2018-Jul-05 21:00N 34°29' E 135°19'0 0.1
2018-Jul-05 20:30N 34°29' E 135°19'0 0.0
2018-Jul-05 20:00N 34°29' E 135°19'0 0.0
2018-Jul-05 19:30N 34°29' E 135°19'0 0.0
2018-Jul-05 19:00N 34°29' E 135°19'0 0.1
2018-Jul-05 18:30N 34°29' E 135°19'0 0.1
2018-Jul-05 18:00N 34°29' E 135°19'0 0.0
2018-Jul-05 17:29N 34°29' E 135°19'0 0.1
2018-Jul-05 16:54N 34°29' E 135°19'0 0.0
2018-Jul-05 16:19N 34°29' E 135°19'0 0.0
2018-Jul-05 16:00N 34°29' E 135°19'0 0.0
2018-Jul-05 15:29N 34°29' E 135°19'0 0.0
2018-Jul-05 15:00N 34°29' E 135°19'0 0.0
2018-Jul-05 13:40N 34°29' E 135°19'0 0.1
2018-Jul-05 13:16N 34°29' E 135°19'0 0.0
2018-Jul-05 12:46N 34°29' E 135°19'0 0.0
2018-Jul-05 12:13N 34°29' E 135°19'0 0.0
2018-Jul-05 11:53N 34°29' E 135°19'0 0.0
2018-Jul-05 06:35N 34°29' E 135°19'0 0.0
2018-Jul-05 06:06N 34°29' E 135°19'0 0.0
2018-Jul-05 05:52N 34°29' E 135°19'1 3.2
2018-Jul-05 05:29N 34°28' E 135°18'611.9
2018-Jul-05 05:00N 34°26' E 135°11'6 1.1
2018-Jul-04 23:41N 34°21' E 135°09'0 0.2
2018-Jul-04 23:30N 34°21' E 135°09'510.0
2018-Jul-04 23:00N 34°18' E 135°04'2 4.3
2018-Jul-04 22:30N 34°20' E 135°05'612.0
2018-Jul-04 22:00N 34°25' E 135°09'612.2
2018-Jul-04 21:29N 34°29' E 135°15'2 0.1
2018-Jul-03 18:43N 34°29' E 135°18'0 0.0
2018-Jul-03 18:19N 34°29' E 135°18'0 0.0
2018-Jul-03 16:55N 34°29' E 135°18'0 0.0
2018-Jul-03 13:19N 34°29' E 135°18'0 0.0
2018-Jul-03 09:01N 34°29' E 135°18'0 0.1
2018-Jul-03 08:55N 34°29' E 135°18'0 0.0
2018-Jul-03 07:19N 34°28' E 135°18'0 0.0
2018-Jul-03 06:55N 34°28' E 135°18'0 0.0
2018-Jul-03 06:25N 34°28' E 135°18'0 0.0
2018-Jul-03 05:52N 34°28' E 135°18'0 0.0
2018-Jul-03 05:22N 34°28' E 135°18'0 0.0
2018-Jul-03 04:52N 34°28' E 135°18'0 0.7
2018-Jul-03 04:29N 34°29' E 135°18'611.9
2018-Jul-03 04:00N 34°34' E 135°16'510.3
2018-Jul-03 03:30N 34°39' E 135°16'3 5.6
2018-Jul-03 03:00N 34°42' E 135°16'0 0.2
2018-Jul-03 02:30N 34°42' E 135°16'0 0.0
2018-Jul-03 02:00N 34°42' E 135°16'0 0.0
2018-Jul-03 01:30N 34°42' E 135°16'0 0.0
2018-Jul-03 01:00N 34°42' E 135°16'0 0.0
2018-Jul-03 00:30N 34°42' E 135°16'0 0.0
2018-Jul-03 00:00N 34°42' E 135°16'0 0.0
2018-Jul-02 23:30N 34°42' E 135°16'2 4.8
2018-Jul-02 23:00N 34°40' E 135°15'3 6.6
2018-Jul-02 22:30N 34°37' E 135°16'1 1.4
2018-Jul-02 22:00N 34°36' E 135°15'4 8.1
2018-Jul-02 21:30N 34°34' E 135°11'510.0
2018-Jul-02 20:58N 34°35' E 135°04'1312.9
2018-Jul-02 20:00N 34°33' E 134°49'  
2018-Jun-29 23:12N 33°59' E 134°55'513.1
2018-Jun-29 22:49N 33°56' E 134°59'232 6.8
2018-Jun-28 12:47N 34°60' E 139°30'310.3
2018-Jun-28 12:28N 35°02' E 139°33'510.4
2018-Jun-28 12:00N 35°05' E 139°38'510.2
2018-Jun-28 11:31N 35°08' E 139°43'510.6
2018-Jun-28 11:00N 35°12' E 139°46'511.0
2018-Jun-28 10:30N 35°18' E 139°44'611.3
2018-Jun-28 10:01N 35°23' E 139°42'611.7
2018-Jun-28 09:30N 35°27' E 139°47'11 1.9
2018-Jun-28 03:54N 35°32' E 139°59'511.1
2018-Jun-28 03:27N 35°28' E 139°55'0 0.0
2018-Jun-27 05:36N 35°28' E 139°55'5 0.7
2018-Jun-26 22:48N 35°31' E 139°60'4 9.8
2018-Jun-26 22:24N 35°29' E 139°56'0 0.0
2018-Jun-26 12:42N 35°29' E 139°56'2 9.2
2018-Jun-26 12:29N 35°29' E 139°53'612.3
2018-Jun-26 12:00N 35°25' E 139°48'612.5
2018-Jun-26 11:30N 35°20' E 139°44'611.5
2018-Jun-26 11:00N 35°14' E 139°47'612.5
2018-Jun-26 10:30N 35°08' E 139°46'  
Track history (hours):
 
Tides and Currents Weather Stations Pressure Air Temp Water Temp Dewpoint Dewpoint Depression Visibility Wind Speed Wind Dir Waves Ship Positions

Isuzu

Last reported at 2018-Jul-06 05:10 UTC. Time now 2018-Jul-16 22:07 UTC.
Position N 34°25' E 134°21'.
Warning: this ship's position is 10 days out of date.

Length 65 m; draft 4.3 m.

Type: Tanker. MMSI: 431003203.

Date/timePositionNaut miles runAvg speedWind from/ knotsBaromVisibWave heightAir tempDewpointWater temp
2018-Jul-06 05:10N 34°25' E 134°21'313.3
2018-Jul-06 04:59N 34°27' E 134°24'613.2
2018-Jul-06 04:30N 34°29' E 134°31'713.4
2018-Jul-06 04:00N 34°32' E 134°39'713.4
2018-Jul-06 03:29N 34°34' E 134°47'713.8
2018-Jul-06 03:00N 34°36' E 134°54'612.7
2018-Jul-06 02:30N 34°37' E 135°02'612.8
2018-Jul-06 02:00N 34°36' E 135°10'611.4
2018-Jul-06 01:30N 34°38' E 135°16'4 7.4
2018-Jul-06 01:00N 34°42' E 135°16'0 0.0
2018-Jul-06 00:30N 34°42' E 135°16'0 0.0
2018-Jul-06 00:00N 34°42' E 135°16'0 0.0
2018-Jul-05 23:30N 34°42' E 135°16'2 3.8
2018-Jul-05 23:00N 34°40' E 135°15'611.5
2018-Jul-05 22:30N 34°35' E 135°17'612.7
2018-Jul-05 22:00N 34°29' E 135°19'0 0.5
2018-Jul-05 21:30N 34°29' E 135°19'0 0.1
2018-Jul-05 21:00N 34°29' E 135°19'0 0.1
2018-Jul-05 20:30N 34°29' E 135°19'0 0.0
2018-Jul-05 20:00N 34°29' E 135°19'0 0.0
2018-Jul-05 19:30N 34°29' E 135°19'0 0.0
2018-Jul-05 19:00N 34°29' E 135°19'0 0.1
2018-Jul-05 18:30N 34°29' E 135°19'0 0.1
2018-Jul-05 18:00N 34°29' E 135°19'0 0.0
2018-Jul-05 17:29N 34°29' E 135°19'0 0.1
2018-Jul-05 16:54N 34°29' E 135°19'0 0.0
2018-Jul-05 16:19N 34°29' E 135°19'0 0.0
2018-Jul-05 16:00N 34°29' E 135°19'0 0.0
2018-Jul-05 15:29N 34°29' E 135°19'0 0.0
2018-Jul-05 15:00N 34°29' E 135°19'0 0.0
2018-Jul-05 13:40N 34°29' E 135°19'0 0.1
2018-Jul-05 13:16N 34°29' E 135°19'0 0.0
2018-Jul-05 12:46N 34°29' E 135°19'0 0.0
2018-Jul-05 12:13N 34°29' E 135°19'0 0.0
2018-Jul-05 11:53N 34°29' E 135°19'0 0.0
2018-Jul-05 06:35N 34°29' E 135°19'0 0.0
2018-Jul-05 06:06N 34°29' E 135°19'0 0.0
2018-Jul-05 05:52N 34°29' E 135°19'1 3.2
2018-Jul-05 05:29N 34°28' E 135°18'611.9
2018-Jul-05 05:00N 34°26' E 135°11'6 1.1
2018-Jul-04 23:41N 34°21' E 135°09'0 0.2
2018-Jul-04 23:30N 34°21' E 135°09'510.0
2018-Jul-04 23:00N 34°18' E 135°04'2 4.3
2018-Jul-04 22:30N 34°20' E 135°05'612.0
2018-Jul-04 22:00N 34°25' E 135°09'612.2
2018-Jul-04 21:29N 34°29' E 135°15'2 0.1
2018-Jul-03 18:43N 34°29' E 135°18'0 0.0
2018-Jul-03 18:19N 34°29' E 135°18'0 0.0
2018-Jul-03 16:55N 34°29' E 135°18'0 0.0
2018-Jul-03 13:19N 34°29' E 135°18'0 0.0
2018-Jul-03 09:01N 34°29' E 135°18'0 0.1
2018-Jul-03 08:55N 34°29' E 135°18'0 0.0
2018-Jul-03 07:19N 34°28' E 135°18'0 0.0
2018-Jul-03 06:55N 34°28' E 135°18'0 0.0
2018-Jul-03 06:25N 34°28' E 135°18'0 0.0
2018-Jul-03 05:52N 34°28' E 135°18'0 0.0
2018-Jul-03 05:22N 34°28' E 135°18'0 0.0
2018-Jul-03 04:52N 34°28' E 135°18'0 0.7
2018-Jul-03 04:29N 34°29' E 135°18'611.9
2018-Jul-03 04:00N 34°34' E 135°16'510.3
2018-Jul-03 03:30N 34°39' E 135°16'3 5.6
2018-Jul-03 03:00N 34°42' E 135°16'0 0.2
2018-Jul-03 02:30N 34°42' E 135°16'0 0.0
2018-Jul-03 02:00N 34°42' E 135°16'0 0.0
2018-Jul-03 01:30N 34°42' E 135°16'0 0.0
2018-Jul-03 01:00N 34°42' E 135°16'0 0.0
2018-Jul-03 00:30N 34°42' E 135°16'0 0.0
2018-Jul-03 00:00N 34°42' E 135°16'0 0.0
2018-Jul-02 23:30N 34°42' E 135°16'2 4.8
2018-Jul-02 23:00N 34°40' E 135°15'3 6.6
2018-Jul-02 22:30N 34°37' E 135°16'1 1.4
2018-Jul-02 22:00N 34°36' E 135°15'4 8.1
2018-Jul-02 21:30N 34°34' E 135°11'510.0
2018-Jul-02 20:58N 34°35' E 135°04'1312.9
2018-Jul-02 20:00N 34°33' E 134°49'  
2018-Jun-29 23:12N 33°59' E 134°55'513.1
2018-Jun-29 22:49N 33°56' E 134°59'232 6.8
2018-Jun-28 12:47N 34°60' E 139°30'310.3
2018-Jun-28 12:28N 35°02' E 139°33'510.4
2018-Jun-28 12:00N 35°05' E 139°38'510.2
2018-Jun-28 11:31N 35°08' E 139°43'510.6
2018-Jun-28 11:00N 35°12' E 139°46'511.0
2018-Jun-28 10:30N 35°18' E 139°44'611.3
2018-Jun-28 10:01N 35°23' E 139°42'611.7
2018-Jun-28 09:30N 35°27' E 139°47'11 1.9
2018-Jun-28 03:54N 35°32' E 139°59'511.1
2018-Jun-28 03:27N 35°28' E 139°55'0 0.0
2018-Jun-27 05:36N 35°28' E 139°55'5 0.7
2018-Jun-26 22:48N 35°31' E 139°60'4 9.8
2018-Jun-26 22:24N 35°29' E 139°56'0 0.0
2018-Jun-26 12:42N 35°29' E 139°56'2 9.2
2018-Jun-26 12:29N 35°29' E 139°53'612.3
2018-Jun-26 12:00N 35°25' E 139°48'612.5
2018-Jun-26 11:30N 35°20' E 139°44'611.5
2018-Jun-26 11:00N 35°14' E 139°47'612.5
2018-Jun-26 10:30N 35°08' E 139°46'  

Dump ship's entire track history